KBEC/BEC METAR and TAF weather

Enter ICAO airport designator
Station Type Date Time Source
KBEC METAR 2019/08/22 02:55 UTC NOAA

KBEC 220255Z AUTO 13004KT 10SM -TSRA BKN110 21/18 A3000 RMK AO2 LTG DSNT ALQS P0049 60126 T02050182


Station Type Date Time Source
KBEC Decoded METAR 2019/08/22 02:55 UTC NOAA

Station name not available
Aug 21, 2019 - 10:55 PM EDT / 2019.08.22 0255 UTC
Wind: from the SE (130 degrees) at 5 MPH (4 KT):0
Visibility: 10 mile(s):0
Sky conditions: mostly cloudy
Weather: light rain with thunder; Lightning observed
Precipitation last hour: 0.49 inches
Temperature: 68.9 F (20.5 C)
Dew Point: 64.8 F (18.2 C)
Relative Humidity: 86%
Pressure (altimeter): 30 in. Hg (1015 hPa)
ob: KBEC 220255Z AUTO 13004KT 10SM -TSRA BKN110 21/18 A3000 RMK AO2 LTG DSNT ALQS P0049 60126 T02050182
cycle: 3

Station Type Date Time Source
KBEC TAF UTC NOAA

Error!

Example: see airport list